createdAt,value
2022-08-29T00:00:17.800Z,17.50
2022-08-29T00:02:48.251Z,16.98
2022-08-29T00:05:16.801Z,17.05
2022-08-29T00:07:44.952Z,16.73
2022-08-29T00:10:16.669Z,16.52
2022-08-29T00:12:45.709Z,17.48
2022-08-29T00:15:15.819Z,17.30
2022-08-29T00:17:44.349Z,16.50
2022-08-29T00:20:16.005Z,16.63
2022-08-29T00:22:44.755Z,16.00
2022-08-29T00:25:15.869Z,17.85
2022-08-29T00:27:44.668Z,17.95
2022-08-29T00:30:19.431Z,17.50
2022-08-29T00:32:47.701Z,20.40
2022-08-29T00:35:20.057Z,16.23
2022-08-29T00:37:48.327Z,18.40
2022-08-29T00:40:20.619Z,15.82
2022-08-29T00:42:48.982Z,14.43
2022-08-29T00:45:18.424Z,17.95
2022-08-29T00:47:52.474Z,15.90
2022-08-29T00:50:26.711Z,17.83
2022-08-29T00:52:57.317Z,16.30
2022-08-29T00:55:31.129Z,14.57
2022-08-29T00:58:02.091Z,15.38
2022-08-29T01:00:30.849Z,14.82
2022-08-29T01:02:58.970Z,13.15
2022-08-29T01:05:27.916Z,15.73
2022-08-29T01:07:56.185Z,12.98
2022-08-29T01:10:42.070Z,14.57
2022-08-29T01:13:12.871Z,13.65
2022-08-29T01:15:44.145Z,13.40
2022-08-29T01:18:15.630Z,14.02
2022-08-29T01:20:59.785Z,13.55
2022-08-29T01:23:33.790Z,13.65
2022-08-29T01:26:05.135Z,13.88
2022-08-29T01:28:37.746Z,13.65
2022-08-29T01:31:09.381Z,13.23
2022-08-29T01:33:49.712Z,12.95
2022-08-29T01:36:20.534Z,14.65
2022-08-29T01:38:50.062Z,14.20
2022-08-29T01:41:21.333Z,13.55
2022-08-29T01:43:51.980Z,12.63
2022-08-29T01:46:23.111Z,12.10
2022-08-29T01:48:51.439Z,12.23
2022-08-29T01:51:20.601Z,12.68
2022-08-29T01:53:48.729Z,13.02
2022-08-29T01:56:21.083Z,13.88
2022-08-29T01:58:51.252Z,12.90
2022-08-29T02:01:23.449Z,12.45
2022-08-29T02:03:53.724Z,12.45
2022-08-29T02:06:22.122Z,13.32
2022-08-29T02:08:50.283Z,12.45
2022-08-29T02:11:20.162Z,12.13
2022-08-29T02:13:50.130Z,11.57
2022-08-29T02:16:19.638Z,12.30
2022-08-29T02:18:48.034Z,11.93
2022-08-29T02:21:18.810Z,12.23
2022-08-29T02:23:50.189Z,12.18
2022-08-29T02:26:20.939Z,12.57
2022-08-29T02:28:50.508Z,10.73
2022-08-29T02:31:19.474Z,11.85
2022-08-29T02:33:48.268Z,11.85
2022-08-29T02:36:17.989Z,14.02
2022-08-29T02:38:47.905Z,13.77
2022-08-29T02:41:16.532Z,10.85
2022-08-29T02:43:46.063Z,12.10
2022-08-29T02:46:17.059Z,11.18
2022-08-29T02:48:49.213Z,11.80
2022-08-29T02:51:33.044Z,14.18
2022-08-29T02:54:02.064Z,13.85
2022-08-29T02:56:30.499Z,13.95
2022-08-29T02:59:01.347Z,12.63
2022-08-29T03:01:31.287Z,12.90
2022-08-29T03:03:59.805Z,11.95
2022-08-29T03:06:27.937Z,11.05
2022-08-29T03:08:56.466Z,11.68
2022-08-29T03:11:24.988Z,10.93
2022-08-29T03:13:57.424Z,10.15
2022-08-29T03:16:28.077Z,11.77
2022-08-29T03:18:56.415Z,12.25
2022-08-29T03:21:28.081Z,11.48
2022-08-29T03:23:57.423Z,10.40
2022-08-29T03:26:26.549Z,9.65
2022-08-29T03:28:54.746Z,9.15
2022-08-29T03:31:23.416Z,9.60
2022-08-29T03:33:53.080Z,11.43
2022-08-29T03:36:21.199Z,11.35
2022-08-29T03:38:49.727Z,11.05
2022-08-29T03:41:23.399Z,11.45
2022-08-29T03:43:51.614Z,11.32
2022-08-29T03:46:20.136Z,11.80
2022-08-29T03:48:48.661Z,10.98
2022-08-29T03:51:18.964Z,10.98
2022-08-29T03:53:47.227Z,10.68
2022-08-29T03:56:18.440Z,10.85
2022-08-29T03:58:51.905Z,11.23
2022-08-29T04:01:22.841Z,11.15
2022-08-29T04:03:51.533Z,11.48
2022-08-29T04:06:21.088Z,11.18
2022-08-29T04:08:49.792Z,12.65
2022-08-29T04:11:19.747Z,12.50
2022-08-29T04:13:49.276Z,11.48
2022-08-29T04:16:19.772Z,11.02
2022-08-29T04:18:48.447Z,10.75
2022-08-29T04:21:17.311Z,12.07
2022-08-29T04:23:47.337Z,10.13
2022-08-29T04:29:06.831Z,11.55
2022-08-29T04:31:36.638Z,11.57
2022-08-29T04:34:06.120Z,12.25
2022-08-29T04:36:35.710Z,13.65
2022-08-29T04:39:06.974Z,13.32
2022-08-29T04:41:35.322Z,13.10
2022-08-29T04:44:04.000Z,15.60
2022-08-29T04:46:32.818Z,14.85
2022-08-29T04:49:04.302Z,13.85
2022-08-29T04:51:34.564Z,13.52
2022-08-29T04:54:04.611Z,14.20
2022-08-29T04:56:32.879Z,14.32
2022-08-29T04:59:03.048Z,14.20
2022-08-29T05:01:32.631Z,14.65
2022-08-29T05:04:01.113Z,13.52
2022-08-29T05:06:29.587Z,12.82
2022-08-29T05:08:59.798Z,12.73
2022-08-29T05:11:31.269Z,12.40
2022-08-29T05:14:01.032Z,12.23
2022-08-29T05:16:30.998Z,10.65
2022-08-29T05:19:00.638Z,8.65
2022-08-29T05:21:35.220Z,6.20
2022-08-29T05:24:05.726Z,5.88
2022-08-29T05:26:37.823Z,5.07
2022-08-29T05:29:08.909Z,3.35
2022-08-29T05:31:38.543Z,3.50
2022-08-29T05:34:14.095Z,3.60
2022-08-29T05:36:55.049Z,3.67
2022-08-29T05:39:23.226Z,2.50
2022-08-29T05:41:55.815Z,2.72
2022-08-29T05:44:24.119Z,2.38
2022-08-29T05:46:52.825Z,2.03
2022-08-29T05:49:21.178Z,2.00
2022-08-29T05:51:49.402Z,1.90
2022-08-29T05:54:17.754Z,1.85
2022-08-29T05:56:45.921Z,1.73
2022-08-29T05:59:17.202Z,2.10
2022-08-29T06:01:46.925Z,1.92
2022-08-29T06:04:15.499Z,2.40
2022-08-29T06:06:43.675Z,2.33
2022-08-29T06:09:12.939Z,2.28
2022-08-29T06:11:41.243Z,2.25
2022-08-29T06:14:09.480Z,2.50
2022-08-29T06:16:39.711Z,2.47
2022-08-29T06:19:07.960Z,2.58
2022-08-29T06:21:36.386Z,2.40
2022-08-29T06:24:05.097Z,3.00
2022-08-29T06:26:33.557Z,2.85
2022-08-29T06:29:02.271Z,3.30
2022-08-29T06:31:30.656Z,3.38
2022-08-29T06:34:02.340Z,3.40
2022-08-29T06:36:32.148Z,3.47
2022-08-29T06:39:02.153Z,3.30
2022-08-29T06:41:31.051Z,3.22
2022-08-29T06:44:01.559Z,3.53
2022-08-29T06:46:32.590Z,4.38
2022-08-29T06:49:03.932Z,4.32
2022-08-29T06:51:33.359Z,3.85
2022-08-29T06:54:02.212Z,4.00
2022-08-29T06:56:31.341Z,4.25
2022-08-29T06:58:59.553Z,3.95
2022-08-29T07:01:28.048Z,3.50
2022-08-29T07:04:02.061Z,4.32
2022-08-29T07:06:31.200Z,4.07
2022-08-29T07:08:59.898Z,4.10
2022-08-29T07:11:30.980Z,3.78
2022-08-29T07:14:01.612Z,3.90
2022-08-29T07:16:30.461Z,3.95
2022-08-29T07:18:58.907Z,3.95
2022-08-29T07:21:28.853Z,3.92
2022-08-29T07:23:59.148Z,3.30
2022-08-29T07:26:29.657Z,3.92
2022-08-29T07:29:00.341Z,3.88
2022-08-29T07:31:31.542Z,3.80
2022-08-29T07:34:02.288Z,4.00
2022-08-29T07:36:34.601Z,3.92
2022-08-29T07:39:04.988Z,3.60
2022-08-29T07:41:33.187Z,3.58
2022-08-29T07:44:01.334Z,3.25
2022-08-29T07:46:29.492Z,3.53
2022-08-29T07:48:58.931Z,3.25
2022-08-29T07:51:28.111Z,3.38
2022-08-29T07:53:58.557Z,3.30
2022-08-29T07:56:29.385Z,3.45
2022-08-29T07:58:59.039Z,3.58
2022-08-29T08:01:28.377Z,3.60
2022-08-29T08:03:57.317Z,3.58
2022-08-29T08:06:27.549Z,3.58
2022-08-29T08:08:57.720Z,3.78
2022-08-29T08:11:27.198Z,3.33
2022-08-29T08:13:56.407Z,2.92
2022-08-29T08:16:27.146Z,3.65
2022-08-29T08:18:56.314Z,3.35
2022-08-29T08:21:25.355Z,3.65
2022-08-29T08:23:53.824Z,3.63
2022-08-29T08:26:24.054Z,3.72
2022-08-29T08:28:53.392Z,3.58
2022-08-29T08:31:23.446Z,3.53
2022-08-29T08:33:52.048Z,3.83
2022-08-29T08:36:23.695Z,3.50
2022-08-29T08:38:53.704Z,2.97
2022-08-29T08:41:42.124Z,3.40
2022-08-29T08:44:30.702Z,3.10
2022-08-29T08:47:08.527Z,3.38
2022-08-29T08:49:42.440Z,2.88
2022-08-29T08:52:16.744Z,4.03
2022-08-29T08:54:51.924Z,3.67
2022-08-29T08:57:22.956Z,3.53
2022-08-29T08:59:56.623Z,3.28
2022-08-29T09:02:35.390Z,3.33
2022-08-29T09:05:19.641Z,3.22
2022-08-29T09:07:56.397Z,3.65
2022-08-29T09:10:35.221Z,3.80
2022-08-29T09:13:19.093Z,3.92
2022-08-29T09:15:51.351Z,3.90
2022-08-29T09:18:27.301Z,3.47
2022-08-29T09:20:57.074Z,3.53
2022-08-29T09:23:28.618Z,3.72
2022-08-29T09:25:58.140Z,3.28
2022-08-29T09:28:30.737Z,3.05
2022-08-29T09:31:20.698Z,3.22
2022-08-29T09:33:52.698Z,3.40
2022-08-29T09:36:39.832Z,3.30
2022-08-29T09:39:18.721Z,3.58
2022-08-29T09:41:54.978Z,3.75
2022-08-29T09:44:30.535Z,3.05
2022-08-29T09:47:07.071Z,2.67
2022-08-29T09:49:36.805Z,3.05
2022-08-29T09:52:18.781Z,3.55
2022-08-29T09:54:52.292Z,3.00
2022-08-29T09:57:23.890Z,3.05
2022-08-29T10:00:10.713Z,2.88
2022-08-29T10:02:46.989Z,3.47
2022-08-29T10:05:31.081Z,3.17
2022-08-29T10:08:03.969Z,3.55
2022-08-29T10:10:34.844Z,3.13
2022-08-29T10:13:07.212Z,3.70
2022-08-29T10:15:50.638Z,3.10
2022-08-29T10:18:25.231Z,3.38
2022-08-29T10:20:58.856Z,3.42
2022-08-29T10:23:30.098Z,3.83
2022-08-29T10:26:00.196Z,2.90
2022-08-29T10:28:34.530Z,3.30
2022-08-29T10:31:06.828Z,3.50
2022-08-29T10:33:55.031Z,3.25
2022-08-29T10:36:28.112Z,3.10
2022-08-29T10:38:58.977Z,5.47
2022-08-29T10:41:31.155Z,3.40
2022-08-29T10:44:03.888Z,3.00
2022-08-29T10:47:05.453Z,4.00
2022-08-29T10:49:48.507Z,4.00
2022-08-29T10:52:24.553Z,3.97
2022-08-29T10:55:01.264Z,3.40
2022-08-29T10:57:42.824Z,3.72
2022-08-29T11:00:16.089Z,4.25
2022-08-29T11:02:50.985Z,3.25
2022-08-29T11:05:25.867Z,3.20
2022-08-29T11:07:59.311Z,3.63
2022-08-29T11:10:31.927Z,3.63
2022-08-29T11:13:06.710Z,3.67
2022-08-29T11:15:41.003Z,3.70
2022-08-29T11:18:22.149Z,3.35
2022-08-29T11:20:57.933Z,3.85
2022-08-29T11:23:38.340Z,4.07
2022-08-29T11:26:13.887Z,3.63
2022-08-29T11:28:48.126Z,3.42
2022-08-29T11:31:23.206Z,3.78
2022-08-29T11:34:03.491Z,3.28
2022-08-29T11:36:55.360Z,3.70
2022-08-29T11:39:42.409Z,3.08
2022-08-29T11:42:14.637Z,3.28
2022-08-29T11:44:47.724Z,3.35
2022-08-29T11:47:40.505Z,4.18
2022-08-29T11:50:29.424Z,3.10
2022-08-29T11:53:02.088Z,3.38
2022-08-29T11:55:37.429Z,3.50
2022-08-29T11:58:11.723Z,3.65
2022-08-29T12:04:05.036Z,4.30
2022-08-29T12:07:01.085Z,3.42
2022-08-29T12:12:56.721Z,3.03
2022-08-29T12:15:52.265Z,3.50
2022-08-29T12:18:44.809Z,4.15
2022-08-29T12:21:47.366Z,3.03
2022-08-29T12:24:44.221Z,3.40
2022-08-29T12:27:59.726Z,3.60
2022-08-29T12:30:28.520Z,3.30
2022-08-29T12:33:07.861Z,3.30
2022-08-29T12:36:11.137Z,3.47
2022-08-29T12:38:57.119Z,3.50
2022-08-29T12:41:36.108Z,3.60
2022-08-29T12:44:11.382Z,3.97
2022-08-29T12:46:42.446Z,3.75
2022-08-29T12:49:22.120Z,3.65
2022-08-29T12:51:56.919Z,3.35
2022-08-29T12:54:37.627Z,3.38
2022-08-29T12:57:09.286Z,3.38
2022-08-29T12:59:37.581Z,3.38
2022-08-29T13:02:06.975Z,3.83
2022-08-29T13:04:36.774Z,2.47
2022-08-29T13:07:07.166Z,3.03
2022-08-29T13:09:41.385Z,2.63
2022-08-29T13:12:12.620Z,3.30
2022-08-29T13:14:56.426Z,3.55
2022-08-29T13:17:27.926Z,4.00
2022-08-29T13:20:33.795Z,3.15
2022-08-29T13:23:07.422Z,3.83
2022-08-29T13:25:43.093Z,3.70
2022-08-29T13:28:15.529Z,2.92
2022-08-29T13:30:48.685Z,3.78
2022-08-29T13:33:35.294Z,3.60
2022-08-29T13:36:32.150Z,3.33
2022-08-29T13:39:26.563Z,3.55
2022-08-29T13:42:13.041Z,3.25
2022-08-29T13:45:10.996Z,3.40
2022-08-29T13:47:52.860Z,4.25
2022-08-29T13:50:21.141Z,2.75
2022-08-29T13:52:52.540Z,3.42
2022-08-29T13:55:21.988Z,3.22
2022-08-29T13:57:54.579Z,3.65
2022-08-29T14:00:32.394Z,2.85
2022-08-29T14:03:07.119Z,3.00
2022-08-29T14:05:36.299Z,3.13
2022-08-29T14:08:06.642Z,3.15
2022-08-29T14:10:35.280Z,3.25
2022-08-29T14:13:05.450Z,3.40
2022-08-29T14:15:34.247Z,3.13
2022-08-29T14:18:02.789Z,3.65
2022-08-29T14:20:31.105Z,2.88
2022-08-29T14:22:59.567Z,3.10
2022-08-29T14:25:27.984Z,3.58
2022-08-29T14:27:56.619Z,3.20
2022-08-29T14:30:26.871Z,3.58
2022-08-29T14:32:55.518Z,3.10
2022-08-29T14:35:25.983Z,3.30
2022-08-29T14:37:56.075Z,3.10
2022-08-29T14:40:25.831Z,3.20
2022-08-29T14:42:56.973Z,2.95
2022-08-29T14:45:26.862Z,3.22
2022-08-29T14:47:55.770Z,2.65
2022-08-29T14:50:24.866Z,3.60
2022-08-29T14:52:53.044Z,3.50
2022-08-29T14:55:22.377Z,2.63
2022-08-29T14:57:50.913Z,3.20
2022-08-29T15:00:21.727Z,3.20
2022-08-29T15:02:51.728Z,3.30
2022-08-29T15:05:21.225Z,2.63
2022-08-29T15:07:49.553Z,3.55
2022-08-29T15:10:20.110Z,2.50
2022-08-29T15:12:48.317Z,3.30
2022-08-29T15:15:16.459Z,3.53
2022-08-29T15:17:44.777Z,2.65
2022-08-29T15:20:35.351Z,2.83
2022-08-29T15:23:04.538Z,3.00
2022-08-29T15:25:32.740Z,2.90
2022-08-29T15:28:00.956Z,3.30
2022-08-29T15:30:29.450Z,2.95
2022-08-29T15:32:58.250Z,2.45
2022-08-29T15:35:27.881Z,3.22
2022-08-29T15:37:56.111Z,2.58
2022-08-29T15:40:25.536Z,2.92
2022-08-29T15:42:53.683Z,2.88
2022-08-29T15:45:22.521Z,2.85
2022-08-29T15:47:54.181Z,2.63
2022-08-29T15:50:24.113Z,2.70
2022-08-29T15:52:54.109Z,2.20
2022-08-29T15:55:24.684Z,3.00
2022-08-29T15:57:53.198Z,3.45
2022-08-29T16:00:30.054Z,3.00
2022-08-29T16:03:00.359Z,2.63
2022-08-29T16:05:29.210Z,2.65
2022-08-29T16:07:59.363Z,2.72
2022-08-29T16:10:27.535Z,2.20
2022-08-29T16:12:55.894Z,2.45
2022-08-29T16:15:24.518Z,2.83
2022-08-29T16:17:53.716Z,2.60
2022-08-29T16:20:22.454Z,2.70
2022-08-29T16:22:52.282Z,2.70
2022-08-29T16:25:23.958Z,2.47
2022-08-29T16:27:53.737Z,2.70
2022-08-29T16:30:22.883Z,2.33
2022-08-29T16:32:51.691Z,2.70
2022-08-29T16:35:22.388Z,2.20
2022-08-29T16:37:59.711Z,2.40
2022-08-29T16:40:33.594Z,2.08
2022-08-29T16:43:02.789Z,2.63
2022-08-29T16:45:31.977Z,2.20
2022-08-29T16:48:00.875Z,2.60
2022-08-29T16:50:30.112Z,2.75
2022-08-29T16:52:58.594Z,2.75
2022-08-29T16:55:28.999Z,3.53
2022-08-29T16:58:16.656Z,2.85
2022-08-29T17:00:45.712Z,2.25
2022-08-29T17:03:19.389Z,2.35
2022-08-29T17:05:48.822Z,2.47
2022-08-29T17:08:16.552Z,2.75
2022-08-29T17:10:44.109Z,3.15
2022-08-29T17:13:13.031Z,3.67
2022-08-29T17:15:40.422Z,2.78
2022-08-29T17:18:09.213Z,2.70
2022-08-29T17:20:38.081Z,2.70
2022-08-29T17:23:10.110Z,2.65
2022-08-29T17:25:39.512Z,2.88
2022-08-29T17:28:17.588Z,3.38
2022-08-29T17:30:48.940Z,3.13
2022-08-29T17:33:17.562Z,2.65
2022-08-29T17:35:46.548Z,2.97
2022-08-29T17:38:15.724Z,3.08
2022-08-29T17:40:44.697Z,2.72
2022-08-29T17:43:14.210Z,3.08
2022-08-29T17:45:42.935Z,3.60
2022-08-29T17:48:12.975Z,3.08
2022-08-29T17:50:41.856Z,2.80
2022-08-29T17:53:10.327Z,2.88
2022-08-29T17:55:39.307Z,3.40
2022-08-29T17:58:07.912Z,3.13
2022-08-29T18:00:37.250Z,2.42
2022-08-29T18:03:06.587Z,3.50
2022-08-29T18:05:36.487Z,3.03
2022-08-29T18:08:05.690Z,2.90
2022-08-29T18:10:34.716Z,2.90
2022-08-29T18:13:03.398Z,2.92
2022-08-29T18:15:35.544Z,3.08
2022-08-29T18:18:04.428Z,3.97
2022-08-29T18:20:33.098Z,4.07
2022-08-29T18:23:02.976Z,3.70
2022-08-29T18:25:31.475Z,4.00
2022-08-29T18:28:00.231Z,3.20
2022-08-29T18:30:29.154Z,3.00
2022-08-29T18:32:58.421Z,3.33
2022-08-29T18:35:27.020Z,2.83
2022-08-29T18:37:55.700Z,3.00
2022-08-29T18:40:26.363Z,3.70
2022-08-29T18:42:55.033Z,4.00
2022-08-29T18:45:23.590Z,3.35
2022-08-29T18:47:54.100Z,3.97
2022-08-29T18:50:37.883Z,4.80
2022-08-29T18:53:07.817Z,3.25
2022-08-29T18:55:37.665Z,3.65
2022-08-29T18:58:06.272Z,3.38
2022-08-29T19:00:35.195Z,3.28
2022-08-29T19:03:04.151Z,3.50
2022-08-29T19:05:33.740Z,3.45
2022-08-29T19:08:02.232Z,3.35
2022-08-29T19:10:31.689Z,3.90
2022-08-29T19:13:01.562Z,3.72
2022-08-29T19:15:30.600Z,3.50
2022-08-29T19:17:59.109Z,3.67
2022-08-29T19:20:48.007Z,3.45
2022-08-29T19:23:16.704Z,3.95
2022-08-29T19:25:45.726Z,3.92
2022-08-29T19:28:16.179Z,3.97
2022-08-29T19:30:44.925Z,3.75
2022-08-29T19:33:15.360Z,3.75
2022-08-29T19:35:43.975Z,3.78
2022-08-29T19:38:12.870Z,4.20
2022-08-29T19:40:41.870Z,3.60
2022-08-29T19:43:13.592Z,3.97
2022-08-29T19:45:44.760Z,4.30
2022-08-29T19:48:15.215Z,4.30
2022-08-29T19:50:47.493Z,4.65
2022-08-29T19:53:24.632Z,3.95
2022-08-29T19:55:55.374Z,4.15
2022-08-29T19:58:31.116Z,3.30
2022-08-29T20:01:03.091Z,4.35
2022-08-29T20:03:32.441Z,4.40
2022-08-29T20:06:06.031Z,4.13
2022-08-29T20:08:43.196Z,4.38
2022-08-29T20:11:14.161Z,4.35
2022-08-29T20:13:50.660Z,4.57
2022-08-29T20:16:26.025Z,4.47
2022-08-29T20:18:55.742Z,4.68
2022-08-29T20:21:25.471Z,4.57
2022-08-29T20:23:57.972Z,5.22
2022-08-29T20:26:28.073Z,4.57
2022-08-29T20:28:58.570Z,4.70
2022-08-29T20:31:29.277Z,4.57
2022-08-29T20:33:57.975Z,5.75
2022-08-29T20:36:44.189Z,5.53
2022-08-29T20:39:13.956Z,4.88
2022-08-29T20:41:43.352Z,5.25
2022-08-29T20:44:18.265Z,4.50
2022-08-29T20:46:49.921Z,5.60
2022-08-29T20:49:19.772Z,6.30
2022-08-29T20:51:48.711Z,5.10
2022-08-29T20:54:18.705Z,5.47
2022-08-29T20:56:48.400Z,5.95
2022-08-29T20:59:17.491Z,5.13
2022-08-29T21:01:46.385Z,5.20
2022-08-29T21:04:34.204Z,5.07
2022-08-29T21:07:04.049Z,4.95
2022-08-29T21:09:32.658Z,4.80
2022-08-29T21:12:01.294Z,4.88
2022-08-29T21:14:30.113Z,4.55
2022-08-29T21:16:59.372Z,5.80
2022-08-29T21:19:30.677Z,5.47
2022-08-29T21:21:59.912Z,5.60
2022-08-29T21:24:29.753Z,5.43
2022-08-29T21:26:59.472Z,5.50
2022-08-29T21:29:28.311Z,5.88
2022-08-29T21:31:57.237Z,5.95
2022-08-29T21:34:26.296Z,5.53
2022-08-29T21:36:56.288Z,6.10
2022-08-29T21:39:28.699Z,5.60
2022-08-29T21:42:01.394Z,6.30
2022-08-29T21:44:31.901Z,6.03
2022-08-29T21:47:00.847Z,5.30
2022-08-29T21:49:30.573Z,6.25
2022-08-29T21:52:01.106Z,6.10
2022-08-29T21:54:30.233Z,6.55
2022-08-29T21:57:02.382Z,6.22
2022-08-29T21:59:30.915Z,6.15
2022-08-29T22:02:00.020Z,6.50
2022-08-29T22:04:29.460Z,6.15
2022-08-29T22:06:59.223Z,6.43
2022-08-29T22:09:29.936Z,6.00
2022-08-29T22:11:58.794Z,6.25
2022-08-29T22:14:48.036Z,7.47
2022-08-29T22:17:16.323Z,6.53
2022-08-29T22:19:45.175Z,6.80
2022-08-29T22:22:13.840Z,6.05
2022-08-29T22:24:44.020Z,7.22
2022-08-29T22:27:12.587Z,6.90
2022-08-29T22:29:41.078Z,6.10
2022-08-29T22:32:09.751Z,6.88
2022-08-29T22:34:38.307Z,7.15
2022-08-29T22:37:07.474Z,7.05
2022-08-29T22:39:36.353Z,6.53
2022-08-29T22:42:07.522Z,6.18
2022-08-29T22:45:02.153Z,7.25
2022-08-29T22:47:25.844Z,6.32
2022-08-29T22:49:54.656Z,6.50
2022-08-29T22:52:23.224Z,6.35
2022-08-29T22:54:51.747Z,6.68
2022-08-29T22:57:22.063Z,6.90
2022-08-29T22:59:50.777Z,7.25
2022-08-29T23:02:19.830Z,7.50
2022-08-29T23:04:49.801Z,6.93
2022-08-29T23:07:19.407Z,6.78
2022-08-29T23:09:48.550Z,6.22
2022-08-29T23:12:18.448Z,6.93
2022-08-29T23:14:48.467Z,6.95
2022-08-29T23:17:17.734Z,6.30
2022-08-29T23:19:46.594Z,6.13
2022-08-29T23:22:19.021Z,6.05
2022-08-29T23:24:58.543Z,6.03
2022-08-29T23:27:27.743Z,6.32
2022-08-29T23:29:58.108Z,6.05
2022-08-29T23:32:26.655Z,6.95
2022-08-29T23:34:55.248Z,6.07
2022-08-29T23:37:23.727Z,6.70
2022-08-29T23:39:52.450Z,6.60
2022-08-29T23:42:20.980Z,6.57
2022-08-29T23:44:49.707Z,6.88
2022-08-29T23:47:19.577Z,6.47
2022-08-29T23:49:48.393Z,6.53
2022-08-29T23:52:17.155Z,6.43
2022-08-29T23:54:45.647Z,6.78
2022-08-29T23:57:14.219Z,6.30
